Latest Weather Observations for Norseman Airport

IDW60801

Issued at 10:04 am WST Tuesday 21 November 2017 (issued every 30 minutes, with the page automatically refreshed every 10 minutes)

About weather observations | Map of weather stations | Latest weather observations for WA | Other Formats
Station Details ID: 012009 Name: NORSEMAN AERO Lat: -32.21 Lon: 121.75 Height: 262.5 m
Data from the previous 72 hours. | See also: Recent months at Norseman Airport
Date/Time
WST
Temp
°C
App
Temp
°C
Dew
Point
°C
Rel
Hum
%
Delta-T
°C
Wind Press
QNH
hPa
Press
MSL
hPa
Rain since
9am
mm
Dir  Spd
km/h
Gust
km/h
Spd
kts
Gust
kts
21/10:00am 22.9 18.7 11.0 47 6.7 SSE 24 41 13 22 1016.0 1015.1 0.0
21/09:30am 22.1 17.0 10.6 48 6.4 SSE 28 39 15 21 1016.1 1015.2 0.0
21/09:00am 20.1 15.3 10.2 53 5.4 S 26 37 14 20 1016.2 1015.3 0.0
21/08:30am 19.5 14.3 10.2 55 5.1 S 28 43 15 23 1016.0 1015.1 0.0
21/08:00am 18.7 13.7 10.8 60 4.3 SSE 28 41 15 22 1015.9 1015.0 0.0
21/07:30am 18.0 13.1 11.3 65 3.7 SSE 28 39 15 21 1015.7 1014.8 0.0
21/07:00am 17.9 13.6 12.1 69 3.2 S 26 35 14 19 1015.4 1014.4 0.0
21/06:30am 16.4 12.7 12.6 78 2.1 S 24 32 13 17 1015.3 1014.3 0.0
21/06:00am 16.2 13.0 13.1 82 1.7 S 22 32 12 17 1014.7 1013.8 0.0
21/05:30am 15.8 13.9 13.1 84 1.5 S 15 22 8 12 1014.1 1013.2 0.0
21/05:00am 15.3 12.6 12.8 85 1.4 S 19 28 10 15 1013.9 1013.0 0.0
21/04:30am 15.4 13.1 12.9 85 1.4 S 17 26 9 14 1013.5 1012.6 0.0
21/04:00am 15.3 13.5 13.2 87 1.2 S 15 22 8 12 1013.1 1012.2 0.0
21/03:30am 15.3 12.7 13.3 88 1.1 SSW 19 26 10 14 1012.8 1011.9 0.0
21/03:00am 15.2 12.7 13.6 90 0.9 SSW 19 26 10 14 1012.6 1011.7 0.0
21/02:30am 15.2 13.1 13.6 90 0.9 SSW 17 24 9 13 1012.4 1011.5 0.0
21/02:00am 15.5 13.0 13.5 88 1.1 S 19 26 10 14 1012.4 1011.5 0.0
21/01:30am 15.6 13.1 13.6 88 1.1 SSW 19 28 10 15 1012.2 1011.2 0.0
21/01:00am 15.5 14.5 13.5 88 1.1 SSW 11 15 6 8 1012.2 1011.2 0.0
21/12:30am 15.8 14.1 13.6 87 1.3 SSW 15 20 8 11 1012.4 1011.5 0.0
21/12:00am 16.1 14.0 13.6 85 1.4 SSW 17 24 9 13 1012.6 1011.7 0.0
 
Date/Time
WST
Temp
°C
App
Temp
°C
Dew
Point
°C
Rel
Hum
%
Delta-T
°C
Wind Press
QNH
hPa
Press
MSL
hPa
Rain since
9am
mm
Dir  Spd
km/h
Gust
km/h
Spd
kts
Gust
kts
20/11:30pm 16.4 14.7 13.5 83 1.6 SSW 15 22 8 12 1012.7 1011.8 0.0
20/11:00pm 16.7 14.2 13.4 81 1.9 SSW 19 33 10 18 1012.5 1011.6 0.0
20/10:30pm 17.1 13.6 13.4 79 2.1 S 24 35 13 19 1012.8 1011.9 0.0
20/10:00pm 17.6 13.0 13.5 77 2.3 SSW 30 43 16 23 1012.6 1011.7 0.0
20/09:30pm 18.7 15.9 13.3 71 3.1 SSW 20 30 11 16 1012.7 1011.8 0.0
20/09:00pm 19.6 15.7 13.3 67 3.6 SSW 26 39 14 21 1012.2 1011.2 0.0
20/08:30pm 20.3 15.7 13.5 65 3.9 SSW 30 48 16 26 1011.7 1010.7 0.0
20/08:29pm 20.3 15.7 13.5 65 3.9 SSW 30 48 16 26 1011.7 1010.7 0.0
20/08:00pm 20.9 16.6 14.3 66 3.9 SSW 30 46 16 25 1011.4 1010.4 0.0
20/07:59pm 21.0 17.1 14.4 66 3.9 SSW 28 46 15 25 1011.4 1010.4 0.0
20/07:30pm 22.5 19.0 14.6 61 4.7 SSW 26 43 14 23 1010.8 1009.9 0.0
20/07:00pm 24.0 19.6 15.2 58 5.3 SSW 32 46 17 25 1010.3 1009.4 0.0
20/06:30pm 27.3 23.5 13.6 43 8.2 S 26 41 14 22 1009.4 1008.5 0.0
20/06:00pm 28.9 24.3 13.6 39 9.2 S 30 43 16 23 1008.8 1007.8 0.0
20/05:39pm 29.7 23.5 12.6 35 10.2 SSW 37 57 20 31 1008.3 1007.3 0.0
20/05:33pm 31.0 26.7 11.9 31 11.3 SW 26 57 14 31 1007.7 1006.7 0.0
20/05:30pm 33.0 29.2 9.7 24 13.4 SW 20 26 11 14 1007.8 1006.8 0.0
20/05:00pm 32.8 30.1 8.9 23 13.6 NW 13 20 7 11 1007.7 1006.7 0.0
20/04:30pm 33.0 32.5 10.9 26 13.0 NNW 4 13 2 7 1007.6 1006.6 0.0
20/04:00pm 32.2 30.6 10.3 26 12.7 NNW 9 15 5 8 1007.7 1006.7 0.0
20/03:30pm 32.5 31.6 10.5 26 12.8 NNE 6 13 3 7 1007.9 1006.9 0.0
20/03:00pm 32.3 31.3 10.9 27 12.6 SSW 7 11 4 6 1008.1 1007.1 0.0
20/02:30pm 32.5 31.7 11.1 27 12.6 SSW 6 17 3 9 1008.3 1007.3 0.0
20/02:00pm 31.8 31.0 11.6 29 12.0 E 7 15 4 8 1008.7 1007.7 0.0
20/01:30pm 32.2 31.1 11.9 29 12.1 NW 9 24 5 13 1009.0 1008.1 0.0
20/01:00pm 30.8 30.3 12.2 32 11.1 ESE 6 13 3 7 1009.4 1008.5 0.0
20/12:30pm 30.5 29.5 12.4 33 10.8 NNE 9 20 5 11 1009.8 1008.9 0.0
20/12:00pm 29.3 27.6 12.3 35 10.1 NE 13 22 7 12 1010.2 1009.3 0.0
20/11:30am 29.4 26.6 11.5 33 10.5 N 17 30 9 16 1010.6 1009.7 0.0
20/11:00am 28.3 26.3 12.6 38 9.3 N 15 24 8 13 1011.2 1010.2 0.0
20/10:30am 27.4 25.6 14.4 45 7.9 N 17 26 9 14 1011.6 1010.6 0.0
20/10:00am 25.0 23.1 15.3 55 5.9 N 19 24 10 13 1012.0 1011.0 0.0
20/09:30am 23.1 21.4 14.7 59 5.0 N 17 24 9 13 1012.3 1011.3 0.0
20/09:00am 21.7 20.0 14.8 65 4.1 N 17 22 9 12 1012.4 1011.5 0.0
20/08:30am 20.4 18.4 15.0 71 3.2 N 19 24 10 13 1012.7 1011.8 0.0
20/08:00am 19.3 15.8 14.6 74 2.8 N 26 32 14 17 1012.9 1012.0 0.0
20/07:30am 19.4 16.9 15.1 76 2.6 NNE 22 28 12 15 1012.7 1011.8 0.0
20/07:00am 17.6 16.1 14.3 81 1.9 ENE 15 19 8 10 1012.5 1011.6 0.0
20/06:30am 17.5 15.8 14.6 83 1.7 NE 17 22 9 12 1012.4 1011.5 0.0
20/06:00am 16.8 15.7 14.3 85 1.4 NE 13 20 7 11 1012.4 1011.5 0.0
20/05:30am 15.7 15.4 14.4 92 0.7 ENE 9 15 5 8 1012.3 1011.3 0.0
20/05:00am 14.5 14.2 14.3 99 0.1 NE 9 13 5 7 1012.4 1011.5 0.0
20/04:30am 14.4 13.3 14.2 99 0.1 NE 13 17 7 9 1012.1 1011.1 0.0
20/04:00am 14.0 13.5 13.7 98 0.2 NE 9 11 5 6 1011.9 1010.9 0.0
20/03:30am 14.2 13.6 13.6 96 0.3 NE 9 11 5 6 1011.9 1010.9 0.0
20/03:00am 14.3 13.2 13.0 92 0.7 NNE 11 13 6 7 1011.9 1010.9 0.0
20/02:30am 15.0 13.5 13.0 88 1.1 N 13 15 7 8 1012.0 1011.0 0.0
20/02:00am 15.1 14.7 13.1 88 1.1 NNE 7 11 4 6 1012.0 1011.0 0.0
20/01:30am 15.4 14.7 13.2 87 1.2 NE 9 15 5 8 1012.0 1011.0 0.0
20/01:00am 15.8 15.1 13.1 84 1.5 E 9 13 5 7 1012.1 1011.1 0.0
20/12:30am 16.5 16.1 13.0 80 2.0 NE 7 13 4 7 1012.4 1011.5 0.0
20/12:00am 16.9 15.8 13.2 79 2.1 E 11 19 6 10 1012.7 1011.8 0.0
 
Date/Time
WST
Temp
°C
App
Temp
°C
Dew
Point
°C
Rel
Hum
%
Delta-T
°C
Wind Press
QNH
hPa
Press
MSL
hPa
Rain since
9am
mm
Dir  Spd
km/h
Gust
km/h
Spd
kts
Gust
kts
19/11:30pm 17.2 16.1 13.1 77 2.3 E 11 17 6 9 1012.8 1011.9 0.0
19/11:00pm 17.8 16.4 13.3 75 2.6 E 13 20 7 11 1013.2 1012.3 0.0
19/10:30pm 18.4 16.7 13.5 73 2.8 E 15 24 8 13 1013.4 1012.5 0.0
19/10:00pm 19.3 17.2 13.7 70 3.2 E 17 28 9 15 1013.6 1012.7 0.0
19/09:30pm 19.8 18.5 13.7 68 3.5 E 13 20 7 11 1013.6 1012.7 0.0
19/09:00pm 20.3 19.4 13.7 66 3.8 E 11 17 6 9 1013.8 1012.9 0.0
19/08:30pm 20.6 20.1 13.8 65 4.0 ESE 9 15 5 8 1013.8 1012.9 0.0
19/08:00pm 21.3 20.8 13.7 62 4.4 E 9 15 5 8 1013.6 1012.7 0.0
19/07:30pm 22.0 21.5 13.9 60 4.8 ESE 9 13 5 7 1013.2 1012.3 0.0
19/07:00pm 22.7 21.5 14.0 58 5.1 E 13 20 7 11 1012.8 1011.9 0.0
19/06:30pm 23.7 22.5 14.1 55 5.7 E 13 19 7 10 1012.5 1011.6 0.0
19/06:00pm 24.9 23.6 13.8 50 6.6 E 13 20 7 11 1012.1 1011.1 0.0
19/05:30pm 25.8 25.0 13.0 45 7.5 SSW 9 17 5 9 1011.9 1010.9 0.0
19/05:00pm 26.0 24.4 12.8 44 7.8 SSW 13 20 7 11 1011.7 1010.7 0.0
19/04:30pm 25.7 23.0 12.9 45 7.5 SW 19 26 10 14 1011.6 1010.6 0.0
19/04:00pm 25.6 23.1 13.5 47 7.2 S 19 28 10 15 1011.4 1010.4 0.0
19/03:30pm 25.7 24.3 13.5 46 7.2 S 13 22 7 12 1011.4 1010.4 0.0
19/03:00pm 25.7 24.7 14.5 50 6.8 SSW 13 24 7 13 1011.5 1010.5 0.0
19/02:30pm 24.5 22.8 13.7 51 6.4 S 15 22 8 12 1011.5 1010.5 0.0
19/02:00pm 24.6 23.3 14.7 54 6.0 SE 15 20 8 11 1011.6 1010.6 0.0
19/01:30pm 23.3 22.4 14.8 59 5.1 S 13 24 7 13 1011.8 1010.8 0.0
19/01:00pm 22.7 21.6 14.3 59 5.0 S 13 20 7 11 1012.0 1011.0 0.0
19/12:30pm 21.8 20.5 14.7 64 4.2 SSW 15 24 8 13 1012.5 1011.6 0.0
19/12:00pm 21.8 20.7 15.4 67 3.9 SSW 15 24 8 13 1012.5 1011.6 0.0
19/11:30am 20.7 19.4 14.8 69 3.5 SSW 15 22 8 12 1012.8 1011.9 0.0
19/11:00am 19.5 18.0 14.3 72 3.0 SW 15 20 8 11 1013.0 1012.1 0.0
19/10:30am 19.0 17.2 14.5 75 2.6 SSW 17 24 9 13 1013.1 1012.2 0.0
19/10:00am 18.5 16.8 14.6 78 2.3 S 17 24 9 13 1013.1 1012.2 0.0
19/09:30am 17.5 15.3 14.8 84 1.6 SSW 20 24 11 13 1013.3 1012.4 0.0
19/09:00am 17.3 15.0 14.6 84 1.6 SSW 20 28 11 15 1013.2 1012.3 5.2
19/08:30am 17.2 15.4 14.5 84 1.6 SSW 17 26 9 14 1013.1 1012.2 5.2
19/08:00am 16.8 14.3 14.1 84 1.6 SSW 20 28 11 15 1012.7 1011.8 5.2
19/07:30am 16.4 14.1 14.2 87 1.3 S 19 28 10 15 1012.6 1011.7 5.2
19/07:00am 15.8 13.5 14.7 93 0.6 SSW 20 30 11 16 1012.4 1011.5 5.2
19/06:30am 15.7 13.6 14.7 94 0.6 S 19 28 10 15 1012.0 1011.0 5.2
19/06:00am 15.3 13.2 14.7 96 0.3 SSW 19 28 10 15 1011.4 1010.4 5.2
19/05:30am 14.9 13.3 14.9 100 0.0 SSW 17 28 9 15 1011.2 1010.2 5.2
19/05:00am 15.0 13.0 15.0 100 0.0 SW 19 24 10 13 1010.9 1010.0 5.2
19/04:30am 14.8 13.1 14.8 100 0.0 SSW 17 22 9 12 1010.5 1009.6 5.2
19/04:00am 15.1 14.3 15.1 100 0.0 SSW 13 19 7 10 1010.3 1009.4 5.2
19/03:30am 15.2 13.7 15.2 100 0.0 SSW 17 26 9 14 1010.1 1009.2 5.2
19/03:00am 15.4 14.3 15.4 100 0.0 SSW 15 22 8 12 1009.9 1009.0 5.2
19/02:30am 15.6 15.3 15.4 99 0.1 SSW 11 17 6 9 1009.8 1008.9 5.2
19/02:00am 15.8 15.9 15.6 99 0.1 SW 9 11 5 6 1010.1 1009.2 5.2
19/01:30am 16.1 16.8 15.5 96 0.4 NW 6 7 3 4 1010.2 1009.3 5.2
19/01:00am 15.8 17.4 15.0 95 0.5 CALM 0 2 0 1 1010.3 1009.4 5.2
19/12:30am 15.6 16.8 15.0 96 0.3 NE 2 7 1 4 1010.4 1009.5 5.2
19/12:00am 15.2 15.4 14.7 97 0.3 NE 7 9 4 5 1010.5 1009.6 5.2
 
Date/Time
WST
Temp
°C
App
Temp
°C
Dew
Point
°C
Rel
Hum
%
Delta-T
°C
Wind Press
QNH
hPa
Press
MSL
hPa
Rain since
9am
mm
Dir  Spd
km/h
Gust
km/h
Spd
kts
Gust
kts
18/11:30pm 15.6 15.9 14.5 93 0.6 NE 6 7 3 4 1010.5 1009.6 5.2
18/11:00pm 16.0 15.9 15.0 94 0.6 NNE 9 13 5 7 1010.6 1009.7 5.2
18/10:30pm 16.0 15.4 14.5 91 0.9 NNW 11 13 6 7 1010.4 1009.5 5.2
18/10:00pm 16.3 16.1 14.7 90 0.9 ENE 9 13 5 7 1010.5 1009.6 5.2
18/09:30pm 16.5 15.6 14.9 90 0.9 ENE 13 17 7 9 1010.4 1009.5 5.2
18/09:00pm 16.1 15.7 14.1 88 1.2 E 9 13 5 7 1010.4 1009.5 5.2
18/08:30pm 15.4 14.7 14.3 93 0.6 ENE 11 13 6 7 1009.9 1009.0 5.2
18/08:00pm 15.4 15.2 14.8 96 0.3 NNE 9 11 5 6 1009.2 1008.3 5.2
18/07:30pm 15.7 15.9 14.2 91 0.9 NW 6 11 3 6 1008.4 1007.4 5.2
18/07:00pm 16.2 15.8 14.0 87 1.3 NNW 9 13 5 7 1007.9 1006.9 5.2
18/06:30pm 16.6 15.7 14.8 89 1.0 NNW 13 17 7 9 1007.5 1006.5 5.2
18/06:00pm 16.8 17.2 14.8 88 1.2 W 6 15 3 8 1006.4 1005.5 5.2
18/05:30pm 16.2 15.5 14.2 88 1.2 S 11 20 6 11 1005.1 1004.1 5.2
18/05:06pm 16.1 11.2 13.8 86 1.3 S 32 50 17 27 1004.3 1003.3 5.2
18/05:00pm 16.0 10.9 13.7 86 1.3 S 33 50 18 27 1004.0 1003.0 5.2
18/04:47pm 16.1 12.1 14.1 88 1.1 S 28 46 15 25 1004.7 1003.7 5.2
18/04:35pm 16.3 11.5 14.5 89 1.0 SW 33 52 18 28 1006.9 1006.0 5.0
18/04:30pm 16.5 10.7 14.9 90 0.9 SW 39 52 21 28 1006.6 1005.7 5.0
18/04:18pm 16.8 12.4 15.7 93 0.7 SW 33 46 18 25 1007.8 1006.8 4.8
18/04:00pm 16.8 10.7 15.3 91 0.9 W 41 56 22 30 1008.7 1007.7 4.2
18/03:30pm 18.4 11.3 16.9 91 0.9 WNW 50 82 27 44 1008.3 1007.3 1.0
18/03:27pm 18.8 12.3 17.5 92 0.8 W 48 61 26 33 1008.0 1007.0 1.0
18/03:15pm 21.9 18.3 17.1 74 3.0 WSW 32 65 17 35 1005.9 1005.0 0.8
18/03:00pm 23.7 20.6 14.4 56 5.6 SW 24 35 13 19 1004.2 1003.2 0.8
18/02:30pm 24.2 19.8 14.0 53 6.1 SSW 30 43 16 23 1003.3 1002.3 0.8
18/02:00pm 23.0 18.5 14.8 60 4.9 SW 32 41 17 22 1003.7 1002.7 0.8
18/01:30pm 19.3 15.3 15.2 77 2.4 SW 30 39 16 21 1004.3 1003.3 0.8
18/01:00pm 18.2 14.7 15.6 85 1.6 SSW 28 41 15 22 1004.5 1003.5 0.8
18/12:39pm 19.3 15.1 16.3 83 1.8 SW 33 56 18 30 1005.0 1004.0 0.6
18/12:30pm 21.1 16.6 16.3 74 2.9 SW 35 48 19 26 1007.3 1006.3 0.2
18/12:00pm 24.1 18.2 14.8 56 5.6 SW 39 50 21 27 1005.7 1004.8 0.0
18/11:33am 26.2 20.7 14.6 48 7.0 SW 37 57 20 31 1004.8 1003.8 0.0
18/11:30am 28.0 22.2 13.9 42 8.5 SW 37 52 20 28 1004.8 1003.8 0.0
18/11:16am 30.2 25.3 12.6 34 10.5 SW 30 44 16 24 1004.4 1003.4 0.0
18/11:00am 29.9 27.8 12.3 33 10.5 W 15 26 8 14 1005.0 1004.0 0.0
18/10:30am 30.1 29.0 12.1 33 10.6 SSE 9 19 5 10 1004.3 1003.3 0.0

Other Formats:

Comma delimited format used in spreadsheet applications
http://www.bom.gov.au/fwo/IDW60801/IDW60801.95642.axf

JavaScript Object Notation format (JSON) in row-major order
http://www.bom.gov.au/fwo/IDW60801/IDW60801.95642.json